Time;durP1;ratioP1;P1;durP2;ratioP2;P2;SDS_P1;SDS_P2;PMS_P1;PMS_P2;Temp;Humidity;BMP_temperature;BMP_pressure;BME280_temperature;BME280_humidity;BME280_pressure;Samples;Min_cycle;Max_cycle;Signal;HPM_P1;HPM_P2
2021/12/17 00:00:32;;;;;;;39.40;19.95;;;;;;;4.48;87.15;98242.09;5049627;28;20045;-73
2021/12/17 00:06:05;;;;;;;;;;;;;;;4.40;88.24;98227.09;5049775;28;20051;-73
2021/12/17 00:08:32;;;;;;;39.80;18.67;;;;;;;4.29;88.41;98223.31;5048721;28;19926;-73
2021/12/17 00:10:59;;;;;;;38.28;19.30;;;;;;;4.24;89.21;98243.94;5049033;28;20045;-72
2021/12/17 00:13:25;;;;;;;41.25;19.42;;;;;;;4.21;89.26;98255.19;5049046;28;20041;-73
2021/12/17 00:15:52;;;;;;;47.42;21.38;;;;;;;4.21;89.87;98253.31;5047784;28;20053;-73
2021/12/17 00:18:24;;;;;;;44.58;21.30;;;;;;;4.25;89.48;98241.00;5048736;28;20049;-73
2021/12/17 00:48:38;;;;;;;40.47;21.70;;;;;;;4.57;88.35;98251.50;5048047;28;20055;-72
2021/12/17 00:53:57;;;;;;;40.50;19.83;;;;;;;4.60;88.27;98251.88;5030530;28;20052;-72
2021/12/17 00:56:24;;;;;;;41.95;20.42;;;;;;;4.64;88.25;98252.19;5048437;28;20496;-72
2021/12/17 00:58:50;;;;;;;46.38;21.80;;;;;;;4.63;88.00;98243.28;5048302;28;20048;-73
2021/12/17 01:01:18;;;;;;;46.83;21.23;;;;;;;4.63;87.70;98242.47;5048288;28;20044;-72
2021/12/17 01:03:44;;;;;;;48.47;21.73;;;;;;;4.69;87.75;98236.13;5048519;28;20064;-72
2021/12/17 01:06:11;;;;;;;45.78;21.75;;;;;;;4.67;87.57;98232.84;5048072;28;20092;-73
2021/12/17 01:08:38;;;;;;;44.75;22.40;;;;;;;4.67;87.60;98236.38;5048057;28;20060;-75
2021/12/17 01:11:06;;;;;;;44.85;21.63;;;;;;;4.67;87.33;98227.47;5047870;28;20045;-72
2021/12/17 01:13:36;;;;;;;45.55;22.45;;;;;;;4.64;87.48;98233.31;5048195;28;20045;-73
2021/12/17 01:16:04;;;;;;;43.33;22.05;;;;;;;4.58;87.58;98218.06;5047689;28;20052;-75
2021/12/17 01:18:43;;;;;;;43.17;22.27;;;;;;;4.54;87.80;98212.34;5047648;28;20136;-73
2021/12/17 01:21:26;;;;;;;42.78;21.88;;;;;;;4.51;87.82;98211.97;5047684;28;20052;-73
2021/12/17 01:43:28;;;;;;;45.33;20.73;;;;;;;4.59;88.73;98219.69;5047552;28;20102;-73
2021/12/17 01:45:55;;;;;;;43.88;20.48;;;;;;;4.63;88.73;98218.19;5047734;28;20052;-73
2021/12/17 01:48:30;;;;;;;43.97;21.50;;;;;;;4.62;88.48;98222.75;5047397;28;20049;-74
2021/12/17 01:56:49;;;;;;;37.63;17.73;;;;;;;4.65;88.37;98216.09;5047145;28;20056;-73
2021/12/17 01:59:31;;;;;;;38.05;17.30;;;;;;;4.66;88.51;98209.63;5047290;28;20049;-73
2021/12/17 02:02:02;;;;;;;33.83;16.77;;;;;;;4.61;88.52;98223.00;5047552;28;20060;-73
2021/12/17 02:04:31;;;;;;;36.50;17.48;;;;;;;4.63;88.42;98215.47;5047345;28;20421;-74
2021/12/17 02:06:58;;;;;;;34.63;16.92;;;;;;;4.65;88.68;98208.00;5047090;28;20056;-73
2021/12/17 02:12:33;;;;;;;36.72;18.13;;;;;;;4.74;87.96;98195.75;5027343;28;20057;-73
2021/12/17 02:21:07;;;;;;;33.00;16.60;;;;;;;4.60;87.60;98194.38;5027414;28;20051;-75
2021/12/17 02:29:27;;;;;;;33.97;17.50;;;;;;;4.61;88.29;98187.94;5027415;28;20119;-74
2021/12/17 02:31:58;;;;;;;34.85;17.00;;;;;;;4.61;87.69;98196.03;5031412;28;20049;-75
2021/12/17 02:34:39;;;;;;;35.03;17.83;;;;;;;4.59;87.71;98192.72;5030912;28;20073;-73
2021/12/17 02:37:11;;;;;;;31.33;16.40;;;;;;;4.64;88.16;98190.94;5031053;28;20057;-72
2021/12/17 02:39:57;;;;;;;32.50;17.38;;;;;;;4.62;88.34;98182.28;5034428;28;20483;-72
2021/12/17 02:42:49;;;;;;;34.83;17.30;;;;;;;4.64;88.16;98195.53;5051008;28;20531;-72
2021/12/17 02:45:34;;;;;;;35.90;18.27;;;;;;;4.67;87.96;98189.69;5050717;28;20053;-73
2021/12/17 02:48:05;;;;;;;38.20;17.70;;;;;;;4.74;87.48;98179.56;5050777;28;20068;-72
2021/12/17 02:50:33;;;;;;;32.47;16.10;;;;;;;4.72;86.58;98176.31;5050893;28;20044;-72
2021/12/17 02:53:07;;;;;;;31.70;16.55;;;;;;;4.69;86.20;98174.06;5050908;28;20049;-73
2021/12/17 02:55:35;;;;;;;26.95;15.77;;;;;;;4.65;86.02;98186.41;5051057;28;20053;-72
2021/12/17 02:58:02;;;;;;;31.70;16.23;;;;;;;4.70;86.76;98181.94;5050463;28;20631;-75
2021/12/17 03:00:29;;;;;;;26.10;15.15;;;;;;;4.73;86.23;98180.63;5050644;28;20521;-74
2021/12/17 03:02:57;;;;;;;30.92;16.00;;;;;;;4.73;85.70;98180.63;5050644;28;20053;-74
2021/12/17 03:05:26;;;;;;;29.77;15.50;;;;;;;4.70;85.52;98184.66;5050432;28;20044;-74
2021/12/17 03:07:53;;;;;;;26.90;14.85;;;;;;;4.66;85.41;98193.44;5050022;28;20073;-74
2021/12/17 03:10:21;;;;;;;26.67;14.38;;;;;;;4.68;85.74;98196.72;5050158;28;20056;-74
2021/12/17 03:12:51;;;;;;;26.63;14.68;;;;;;;4.69;86.14;98201.03;5050434;28;20056;-72
2021/12/17 03:15:25;;;;;;;26.48;14.55;;;;;;;4.71;85.62;98190.84;5050190;28;20053;-75
2021/12/17 03:23:32;;;;;;;30.23;15.88;;;;;;;4.71;85.82;98191.69;5050005;28;20056;-73
2021/12/17 03:26:03;;;;;;;30.38;16.17;;;;;;;4.75;86.06;98181.25;5050313;28;20072;-73
2021/12/17 03:28:30;;;;;;;25.65;14.48;;;;;;;4.78;85.27;98183.44;5049852;28;20053;-73
2021/12/17 03:30:57;;;;;;;24.88;13.85;;;;;;;4.76;84.76;98188.28;5049964;28;20417;-73
2021/12/17 03:33:24;;;;;;;25.45;14.60;;;;;;;4.73;84.73;98194.13;5049421;28;20063;-73
2021/12/17 03:35:51;;;;;;;25.38;14.18;;;;;;;4.77;85.13;98187.22;5050125;28;20068;-74
2021/12/17 03:38:18;;;;;;;26.65;14.70;;;;;;;4.74;84.95;98190.38;5048958;28;20053;-73
2021/12/17 03:40:46;;;;;;;28.63;14.93;;;;;;;4.71;84.70;98190.84;5046212;28;20049;-73
2021/12/17 03:43:22;;;;;;;27.48;14.35;;;;;;;4.70;85.27;98197.31;5049642;28;20076;-73
2021/12/17 03:46:01;;;;;;;24.02;13.90;;;;;;;4.65;85.12;98191.81;5002849;28;20518;-73
2021/12/17 03:48:31;;;;;;;25.58;13.23;;;;;;;4.62;85.26;98184.97;5006690;28;20500;-74
2021/12/17 03:50:57;;;;;;;26.35;14.45;;;;;;;4.64;84.41;98171.25;5007019;28;20502;-74
2021/12/17 03:53:24;;;;;;;23.70;13.30;;;;;;;4.59;83.50;98168.44;5007126;28;20057;-73
2021/12/17 03:55:50;;;;;;;25.08;12.48;;;;;;;4.53;84.03;98172.88;5007021;28;20077;-73
2021/12/17 03:58:19;;;;;;;21.42;12.55;;;;;;;4.49;83.69;98160.09;5005669;28;20060;-73
2021/12/17 04:00:46;;;;;;;22.38;12.48;;;;;;;4.47;84.38;98156.84;5007149;28;20155;-74
2021/12/17 04:03:12;;;;;;;22.60;12.55;;;;;;;4.44;84.36;98148.16;5007413;28;20050;-74
2021/12/17 04:05:39;;;;;;;22.15;12.48;;;;;;;4.36;83.75;98145.00;5048983;28;20060;-73
2021/12/17 04:08:06;;;;;;;22.08;12.20;;;;;;;4.27;84.10;98141.00;5047279;28;20044;-73
2021/12/17 04:10:40;;;;;;;21.45;12.48;;;;;;;4.21;84.42;98137.34;5048953;28;20069;-73
2021/12/17 04:13:24;;;;;;;21.92;13.38;;;;;;;4.15;84.74;98138.28;5049115;28;20056;-73
2021/12/17 04:15:56;;;;;;;20.27;11.77;;;;;;;4.08;85.12;98135.72;5049211;28;20061;-73
2021/12/17 04:18:23;;;;;;;24.70;13.57;;;;;;;4.02;85.15;98135.78;5048182;28;20103;-73
2021/12/17 04:20:50;;;;;;;25.63;13.00;;;;;;;3.96;85.13;98125.94;5048589;28;20048;-73
2021/12/17 04:23:16;;;;;;;24.15;13.50;;;;;;;3.90;85.27;98128.50;5048854;28;20068;-73
2021/12/17 04:25:43;;;;;;;24.13;13.77;;;;;;;3.82;84.58;98126.19;5048932;28;20699;-73
2021/12/17 04:28:09;;;;;;;23.83;13.82;;;;;;;3.75;85.09;98122.75;5048496;28;20041;-73
2021/12/17 04:30:37;;;;;;;23.60;13.85;;;;;;;3.69;84.95;98118.28;5048904;28;20041;-73
2021/12/17 04:33:06;;;;;;;23.02;13.27;;;;;;;3.61;84.70;98118.63;5048501;28;20067;-72
2021/12/17 04:35:33;;;;;;;21.70;13.52;;;;;;;3.56;84.87;98130.09;5048937;28;20403;-73
2021/12/17 04:38:00;;;;;;;25.33;14.05;;;;;;;3.47;84.56;98125.25;5048503;28;20127;-73
2021/12/17 04:40:27;;;;;;;26.45;14.57;;;;;;;3.38;84.42;98124.75;5048192;28;20585;-73
2021/12/17 04:43:02;;;;;;;25.83;14.38;;;;;;;3.31;84.65;98122.16;5049074;28;20040;-73
2021/12/17 04:45:29;;;;;;;28.98;15.18;;;;;;;3.24;84.73;98121.41;5028405;28;20566;-73
2021/12/17 04:58:54;;;;;;;28.25;15.43;;;;;;;2.90;84.73;98141.72;5028119;28;20053;-75
2021/12/17 05:01:21;;;;;;;26.50;14.70;;;;;;;2.84;84.92;98151.50;5028065;28;20050;-75
2021/12/17 05:03:47;;;;;;;28.65;15.20;;;;;;;2.82;85.19;98160.88;5028491;28;20053;-75
2021/12/17 05:06:16;;;;;;;26.45;14.27;;;;;;;2.71;85.64;98165.09;5027753;28;20050;-75
2021/12/17 05:08:43;;;;;;;27.20;14.80;;;;;;;2.65;85.89;98166.00;5027702;28;20042;-75
2021/12/17 05:11:27;;;;;;;29.73;15.60;;;;;;;2.56;86.70;98165.47;5027492;28;20496;-75
2021/12/17 05:19:33;;;;;;;28.80;15.57;;;;;;;2.62;86.63;98171.84;5027514;28;20134;-73
2021/12/17 05:22:05;;;;;;;30.02;16.20;;;;;;;2.61;86.10;98154.88;5028343;28;20046;-73
2021/12/17 05:24:31;;;;;;;27.30;14.45;;;;;;;2.61;85.91;98154.06;5027740;28;20125;-73
2021/12/17 05:26:58;;;;;;;35.30;19.38;;;;;;;2.59;85.99;98150.75;5028134;28;20052;-73
2021/12/17 05:29:24;;;;;;;41.70;22.33;;;;;;;2.57;86.01;98150.97;5027259;28;20052;-73
2021/12/17 05:31:51;;;;;;;38.22;20.30;;;;;;;2.57;86.63;98152.84;5027833;28;20106;-73
2021/12/17 05:34:17;;;;;;;37.30;19.75;;;;;;;2.59;86.68;98150.75;5027700;28;20432;-73
2021/12/17 05:36:44;;;;;;;36.05;18.30;;;;;;;2.62;86.94;98158.38;5027642;28;20045;-73
2021/12/17 05:39:12;;;;;;;35.03;17.85;;;;;;;2.67;87.24;98161.22;5026986;28;20049;-73
2021/12/17 05:41:38;;;;;;;45.92;21.58;;;;;;;2.74;87.22;98170.03;5027673;28;20057;-73
2021/12/17 05:44:05;;;;;;;48.28;23.88;;;;;;;2.81;87.37;98181.53;5027518;28;20061;-73
2021/12/17 05:46:49;;;;;;;47.05;24.20;;;;;;;2.90;86.70;98175.88;5027781;28;20052;-73
2021/12/17 05:49:15;;;;;;;;;;;;;;;2.98;86.41;98178.28;5027543;28;20057;-73
2021/12/17 05:51:42;;;;;;;40.90;19.83;;;;;;;2.98;85.65;98191.75;5027089;28;19932;-73
2021/12/17 05:54:08;;;;;;;33.15;17.38;;;;;;;2.99;85.43;98201.44;5027353;28;20060;-73
2021/12/17 05:56:36;;;;;;;30.63;16.48;;;;;;;2.98;85.59;98199.81;5027235;28;20056;-73
2021/12/17 05:59:03;;;;;;;43.17;21.35;;;;;;;2.96;85.83;98207.25;5026794;28;20053;-73
2021/12/17 06:01:29;;;;;;;58.80;26.55;;;;;;;2.97;86.48;98196.28;5027294;28;20053;-73
2021/12/17 06:03:56;;;;;;;74.90;32.70;;;;;;;3.01;86.69;98202.84;5027335;28;20064;-73
2021/12/17 06:06:30;;;;;;;72.43;31.55;;;;;;;3.06;87.37;98202.19;5026957;28;20061;-73
2021/12/17 06:08:57;;;;;;;60.15;25.83;;;;;;;3.12;87.17;98203.97;5027330;28;20057;-73
2021/12/17 06:11:24;;;;;;;52.75;25.63;;;;;;;3.21;87.44;98199.94;5026749;28;20115;-72
2021/12/17 06:13:51;;;;;;;44.45;21.35;;;;;;;3.27;87.63;98196.34;5027250;28;20042;-73
2021/12/17 06:16:18;;;;;;;38.22;19.95;;;;;;;3.38;87.16;98192.88;5026585;28;20481;-73
2021/12/17 06:18:44;;;;;;;42.83;22.00;;;;;;;3.41;87.06;98191.63;5027248;28;20046;-72
2021/12/17 06:21:11;;;;;;;43.83;22.63;;;;;;;3.44;87.04;98201.09;5027060;28;20497;-72
2021/12/17 06:23:38;;;;;;;48.35;24.25;;;;;;;3.47;86.51;98195.28;5027708;28;20111;-73
2021/12/17 06:26:05;;;;;;;53.58;25.63;;;;;;;3.47;86.44;98184.50;5026804;28;20050;-73
2021/12/17 06:28:32;;;;;;;52.58;26.10;;;;;;;3.51;85.86;98185.69;5026629;28;20060;-73
2021/12/17 06:30:59;;;;;;;44.65;23.10;;;;;;;3.50;85.34;98189.41;5026650;28;20061;-73
2021/12/17 06:33:26;;;;;;;41.10;20.98;;;;;;;3.48;85.31;98191.53;5023703;28;20079;-77
2021/12/17 06:35:52;;;;;;;29.85;17.55;;;;;;;3.47;85.19;98192.59;5027077;28;20064;-76
2021/12/17 06:38:20;;;;;;;32.05;16.63;;;;;;;3.47;85.26;98189.88;5026658;28;20064;-77
2021/12/17 06:40:48;;;;;;;30.45;16.00;;;;;;;3.44;84.96;98190.31;5027212;28;20459;-73
2021/12/17 06:43:15;;;;;;;26.40;15.57;;;;;;;3.41;85.33;98180.84;5026950;28;20107;-73
2021/12/17 06:45:52;;;;;;;31.17;16.10;;;;;;;3.45;85.58;98182.03;5026631;28;20041;-73
2021/12/17 06:48:24;;;;;;;28.75;15.70;;;;;;;3.42;85.66;98181.66;5026182;28;20070;-73
2021/12/17 06:59:32;;;;;;;25.38;14.38;;;;;;;3.26;85.24;98167.78;4934472;28;20203;-73
2021/12/17 07:10:35;;;;;;;28.33;14.93;;;;;;;3.11;86.20;98191.56;5006555;28;20057;-72
2021/12/17 07:21:31;;;;;;;49.30;16.95;;;;;;;3.20;86.30;98200.16;5030444;28;20052;-74
2021/12/17 07:35:26;;;;;;;66.05;21.17;;;;;;;3.16;86.76;98205.19;5029990;28;20141;-72
2021/12/17 07:40:38;;;;;;;112.72;25.80;;;;;;;3.22;87.04;98215.03;5030116;28;20060;-73
2021/12/17 07:43:11;;;;;;;53.80;18.38;;;;;;;3.25;87.22;98209.22;5029331;28;20071;-73
2021/12/17 07:45:38;;;;;;;52.30;16.58;;;;;;;3.24;87.07;98206.75;5040994;28;20059;-73
2021/12/17 07:48:05;;;;;;;46.63;17.70;;;;;;;3.24;86.89;98212.13;5048435;28;20079;-73
2021/12/17 07:50:32;;;;;;;38.90;15.70;;;;;;;3.22;86.71;98209.66;5049560;28;20496;-73
2021/12/17 07:53:00;;;;;;;48.60;16.95;;;;;;;3.20;86.17;98206.38;5049719;28;20045;-73
2021/12/17 07:55:26;;;;;;;39.92;16.45;;;;;;;3.27;86.68;98209.81;5049207;28;20128;-73
2021/12/17 07:57:53;;;;;;;91.03;21.67;;;;;;;3.32;86.58;98209.94;5049185;28;20041;-73
2021/12/17 08:00:19;;;;;;;84.82;22.33;;;;;;;3.36;86.75;98221.09;5033233;28;20057;-73
2021/12/17 08:02:45;;;;;;;84.25;22.25;;;;;;;3.40;86.80;98217.72;5029256;28;20045;-74
2021/12/17 08:05:12;;;;;;;94.60;23.40;;;;;;;3.45;86.16;98218.94;5029422;28;20049;-73
2021/12/17 08:07:39;;;;;;;81.60;24.00;;;;;;;3.43;86.09;98221.81;5029197;28;20091;-72
2021/12/17 08:10:07;;;;;;;76.57;26.33;;;;;;;3.49;86.41;98225.47;5028840;28;20072;-73
2021/12/17 08:12:35;;;;;;;75.85;22.65;;;;;;;3.58;86.41;98229.53;5029485;28;20056;-73
2021/12/17 08:15:01;;;;;;;63.15;21.60;;;;;;;3.61;86.30;98221.81;5029526;28;20140;-73
2021/12/17 08:17:47;;;;;;;57.35;17.63;;;;;;;3.66;85.79;98210.34;5068003;28;20067;-73
2021/12/17 08:23:32;;;;;;;33.63;15.63;;;;;;;3.60;85.65;98205.84;5069385;28;20052;-74
2021/12/17 08:26:07;;;;;;;33.80;13.68;;;;;;;3.56;84.99;98204.69;5068379;28;20048;-74
2021/12/17 08:28:52;;;;;;;25.63;13.38;;;;;;;3.47;84.94;98189.88;5068824;28;20052;-73
2021/12/17 08:31:20;;;;;;;30.05;12.80;;;;;;;3.42;85.76;98192.44;5068406;28;20551;-73
2021/12/17 08:33:46;;;;;;;26.70;13.95;;;;;;;3.42;85.63;98195.94;5069572;28;20048;-73
2021/12/17 08:36:14;;;;;;;27.15;14.23;;;;;;;3.49;86.58;98203.94;5067647;28;20048;-72
2021/12/17 08:38:41;;;;;;;23.52;14.63;;;;;;;3.53;86.70;98210.53;5068374;28;20106;-72
2021/12/17 08:41:09;;;;;;;25.77;14.93;;;;;;;3.56;86.15;98210.91;5068322;28;20558;-72
2021/12/17 08:43:36;;;;;;;30.95;15.73;;;;;;;3.58;86.61;98207.97;5068936;28;20045;-72
2021/12/17 08:46:03;;;;;;;25.73;13.77;;;;;;;3.59;85.83;98209.59;5067217;28;20052;-71
2021/12/17 08:48:29;;;;;;;24.35;14.13;;;;;;;3.63;86.35;98211.63;5068342;28;20625;-73
2021/12/17 08:50:56;;;;;;;22.00;13.07;;;;;;;3.67;85.78;98209.31;5068227;28;20050;-72
2021/12/17 08:53:22;;;;;;;19.67;12.02;;;;;;;3.68;84.80;98208.25;5068330;28;20477;-73
2021/12/17 08:55:49;;;;;;;18.85;12.00;;;;;;;3.67;84.87;98209.31;5068448;28;20395;-72
2021/12/17 08:58:17;;;;;;;20.33;13.15;;;;;;;3.70;85.56;98208.81;5067714;28;20048;-73
2021/12/17 09:00:45;;;;;;;19.35;12.43;;;;;;;3.79;85.32;98199.38;5068450;28;20051;-74
2021/12/17 09:03:12;;;;;;;21.80;13.07;;;;;;;3.77;84.46;98216.84;5067967;28;20052;-72
2021/12/17 09:05:41;;;;;;;20.70;12.65;;;;;;;3.79;84.92;98220.94;5067671;28;20044;-73
2021/12/17 09:08:09;;;;;;;19.90;12.98;;;;;;;3.85;85.17;98220.00;5067368;28;20056;-73
2021/12/17 09:10:37;;;;;;;20.02;12.88;;;;;;;3.86;85.27;98213.59;5067971;28;20522;-72
2021/12/17 09:13:04;;;;;;;19.83;12.57;;;;;;;3.93;85.77;98208.94;5067392;28;20056;-73
2021/12/17 09:15:32;;;;;;;21.55;12.10;;;;;;;3.91;84.58;98205.66;5067876;28;20048;-73
2021/12/17 09:17:58;;;;;;;19.42;11.82;;;;;;;3.87;84.15;98206.34;5067938;28;20056;-72
2021/12/17 09:20:25;;;;;;;20.63;12.57;;;;;;;3.90;84.77;98206.69;5066795;28;20527;-75
2021/12/17 09:22:52;;;;;;;20.55;12.52;;;;;;;3.93;85.42;98206.22;5067595;28;20102;-72
2021/12/17 09:25:19;;;;;;;21.17;12.63;;;;;;;3.99;85.40;98214.44;5067587;28;20052;-73
2021/12/17 09:27:46;;;;;;;19.02;12.13;;;;;;;4.10;85.72;98210.97;5067558;28;20055;-73
2021/12/17 09:30:15;;;;;;;20.15;12.52;;;;;;;4.18;85.83;98202.53;5067234;28;20064;-73
2021/12/17 09:32:43;;;;;;;19.70;12.00;;;;;;;4.31;85.95;98196.94;5067664;28;20503;-73
2021/12/17 09:35:11;;;;;;;22.00;12.88;;;;;;;4.40;85.78;98200.94;5067335;28;20061;-72
2021/12/17 09:37:38;;;;;;;21.20;13.45;;;;;;;4.49;85.58;98192.47;5067477;28;20044;-73
2021/12/17 09:40:08;;;;;;;19.15;12.45;;;;;;;4.60;85.58;98194.38;5067337;28;20052;-73
2021/12/17 09:42:35;;;;;;;18.17;12.05;;;;;;;4.75;84.04;98185.78;5068301;28;20079;-73
2021/12/17 09:45:01;;;;;;;19.48;12.40;;;;;;;4.88;84.15;98188.25;5075049;28;20086;-73
2021/12/17 09:47:28;;;;;;;20.05;11.85;;;;;;;4.96;83.32;98194.13;5087647;28;20499;-72
2021/12/17 09:49:57;;;;;;;18.95;12.43;;;;;;;4.97;82.31;98197.66;5087728;28;20051;-73
2021/12/17 09:52:24;;;;;;;19.88;13.60;;;;;;;5.01;82.93;98196.09;5087335;28;20051;-72
2021/12/17 09:54:51;;;;;;;19.05;12.43;;;;;;;5.13;82.46;98182.59;5087866;28;20679;-73
2021/12/17 09:57:19;;;;;;;18.98;12.40;;;;;;;5.33;82.24;98182.19;5087284;28;20040;-72
2021/12/17 09:59:45;;;;;;;18.83;12.45;;;;;;;5.52;82.47;98161.19;5082120;28;20059;-73
2021/12/17 10:02:12;;;;;;;18.38;12.32;;;;;;;5.65;82.01;98174.44;5067061;28;20060;-73
2021/12/17 10:04:42;;;;;;;16.40;11.18;;;;;;;5.68;80.21;98185.56;5067695;28;20052;-72
2021/12/17 10:07:21;;;;;;;12.50;8.77;;;;;;;5.61;77.96;98179.50;5065185;28;20072;-72
2021/12/17 10:09:48;;;;;;;13.80;9.70;;;;;;;5.50;78.93;98173.06;5067437;28;20044;-72
2021/12/17 10:12:16;;;;;;;13.15;8.10;;;;;;;5.61;78.16;98173.28;5066841;28;20048;-73
2021/12/17 10:14:43;;;;;;;18.33;11.07;;;;;;;5.69;78.64;98164.75;5067469;28;20049;-73
2021/12/17 10:17:12;;;;;;;18.25;11.15;;;;;;;5.67;78.77;98166.91;5066359;28;20475;-76
2021/12/17 10:19:44;;;;;;;12.98;8.85;;;;;;;5.99;77.84;98176.16;5067636;28;20052;-73
2021/12/17 10:22:12;;;;;;;10.77;7.60;;;;;;;6.34;75.93;98182.44;5066696;28;20056;-73
2021/12/17 10:24:44;;;;;;;9.90;6.85;;;;;;;6.74;76.65;98187.66;5067654;28;20049;-73
2021/12/17 10:27:30;;;;;;;11.07;7.40;;;;;;;7.28;75.36;98182.44;5066679;28;20084;-73
2021/12/17 10:29:57;;;;;;;8.52;6.40;;;;;;;7.65;73.90;98177.19;5067534;28;20050;-73
2021/12/17 10:32:26;;;;;;;9.93;6.68;;;;;;;7.94;71.35;98177.75;5066213;28;20052;-74
2021/12/17 10:35:00;;;;;;;12.55;8.60;;;;;;;7.89;71.64;98177.72;5067258;28;20064;-72
2021/12/17 10:37:34;;;;;;;16.58;9.77;;;;;;;7.84;72.22;98180.38;5067089;28;20049;-72
2021/12/17 10:40:15;;;;;;;13.50;9.48;;;;;;;7.74;72.58;98181.06;5067380;28;20715;-72
2021/12/17 10:42:49;;;;;;;14.25;10.05;;;;;;;7.53;71.99;98180.03;5067591;28;20052;-73
2021/12/17 10:45:24;;;;;;;15.80;10.27;;;;;;;7.33;72.69;98185.22;5066721;28;20049;-72
2021/12/17 10:50:52;;;;;;;14.63;10.13;;;;;;;6.95;72.69;98184.19;5068812;28;20075;-75
2021/12/17 10:53:23;;;;;;;12.90;9.48;;;;;;;6.76;73.71;98185.50;5070915;28;20052;-72
2021/12/17 10:55:51;;;;;;;14.27;9.85;;;;;;;6.57;74.92;98181.44;5070597;28;20127;-74
2021/12/17 10:58:18;;;;;;;15.52;9.88;;;;;;;6.44;75.53;98178.00;5070218;28;20057;-74
2021/12/17 11:00:50;;;;;;;13.90;9.55;;;;;;;6.31;75.08;98172.91;5070598;28;20059;-72
2021/12/17 11:03:17;;;;;;;13.82;9.50;;;;;;;6.20;76.30;98181.91;5070542;28;20098;-73
2021/12/17 11:05:43;;;;;;;16.85;10.73;;;;;;;6.23;77.50;98179.56;5070451;28;20055;-72
2021/12/17 11:08:24;;;;;;;17.65;11.77;;;;;;;6.29;77.83;98169.63;5070313;28;20052;-73
2021/12/17 11:10:58;;;;;;;16.13;10.63;;;;;;;6.30;78.29;98171.28;5070675;28;20461;-72
2021/12/17 11:13:25;;;;;;;15.95;11.13;;;;;;;6.42;78.15;98166.63;5069789;28;20094;-73
2021/12/17 11:15:52;;;;;;;14.02;9.75;;;;;;;6.48;77.46;98178.34;5070300;28;20048;-72
2021/12/17 11:18:20;;;;;;;15.13;10.40;;;;;;;6.50;77.29;98171.59;5069952;28;20051;-72
2021/12/17 11:20:47;;;;;;;16.73;9.60;;;;;;;6.44;75.99;98163.66;5070738;28;20499;-73
2021/12/17 11:23:16;;;;;;;17.33;10.88;;;;;;;6.36;75.89;98164.88;5069757;28;20055;-73
2021/12/17 11:25:48;;;;;;;17.48;10.50;;;;;;;6.33;77.06;98165.38;5070502;28;20054;-73
2021/12/17 11:28:16;;;;;;;18.63;11.90;;;;;;;6.38;77.11;98157.34;5069660;28;20070;-72
2021/12/17 11:30:45;;;;;;;15.65;10.40;;;;;;;6.47;76.57;98161.28;5070709;28;20041;-72
2021/12/17 11:33:12;;;;;;;16.90;10.85;;;;;;;6.49;77.15;98159.13;5068858;28;20053;-72
2021/12/17 11:35:42;;;;;;;14.13;9.57;;;;;;;6.44;77.03;98158.25;5070575;28;20052;-72
2021/12/17 11:38:13;;;;;;;16.20;10.35;;;;;;;6.47;78.22;98161.28;5069231;28;20052;-73
2021/12/17 11:40:44;;;;;;;16.17;9.98;;;;;;;6.49;77.32;98167.25;5070668;28;20063;-74
2021/12/17 11:43:24;;;;;;;16.52;10.55;;;;;;;6.46;76.97;98159.63;5069249;28;20052;-72
2021/12/17 11:45:58;;;;;;;25.02;14.75;;;;;;;6.39;77.09;98158.97;5069717;28;20503;-75
2021/12/17 11:48:27;;;;;;;16.92;10.65;;;;;;;6.32;77.53;98152.94;5069432;28;20102;-74
2021/12/17 11:51:06;;;;;;;16.42;10.93;;;;;;;6.23;77.36;98157.09;5070495;28;20044;-73
2021/12/17 11:53:33;;;;;;;18.90;11.02;;;;;;;6.15;77.81;98154.78;5069838;28;20056;-73
2021/12/17 11:56:02;;;;;;;21.13;11.43;;;;;;;6.11;78.10;98140.97;5070188;28;20087;-72
2021/12/17 11:58:53;;;;;;;18.42;11.05;;;;;;;6.14;77.98;98145.03;5068015;28;20056;-73
2021/12/17 12:01:55;;;;;;;16.88;10.48;;;;;;;6.09;78.03;98143.06;5069244;28;20052;-73
2021/12/17 12:04:38;;;;;;;12.98;9.18;;;;;;;6.04;77.14;98150.28;5064981;28;20061;-73
2021/12/17 12:07:06;;;;;;;13.57;9.70;;;;;;;5.93;77.24;98150.09;5065544;28;20555;-73
2021/12/17 12:10:02;;;;;;;14.27;9.52;;;;;;;5.85;77.71;98149.66;5069809;28;20606;-73
2021/12/17 12:13:00;;;;;;;16.00;10.25;;;;;;;5.79;77.82;98158.72;5066769;28;20055;-72
2021/12/17 12:15:33;;;;;;;19.98;11.40;;;;;;;5.82;78.44;98163.66;5068651;28;20051;-73
2021/12/17 12:18:06;;;;;;;20.58;10.68;;;;;;;5.77;78.93;98145.47;5068896;28;20044;-72
2021/12/17 12:21:00;;;;;;;18.23;11.35;;;;;;;5.75;78.72;98153.00;5069483;28;20044;-72
2021/12/17 12:23:40;;;;;;;17.83;11.00;;;;;;;5.72;79.40;98156.19;5051054;28;20622;-73
2021/12/17 12:26:19;;;;;;;18.30;10.55;;;;;;;5.77;79.33;98153.56;5068280;28;20048;-73
2021/12/17 12:28:56;;;;;;;18.83;10.90;;;;;;;5.73;78.17;98147.81;5068795;28;20101;-73
2021/12/17 12:31:42;;;;;;;19.35;11.43;;;;;;;5.74;78.42;98145.94;5068135;28;20048;-72
2021/12/17 12:34:12;;;;;;;17.48;10.90;;;;;;;5.64;78.52;98141.19;5068807;28;20041;-73
2021/12/17 12:36:55;;;;;;;18.35;10.77;;;;;;;5.66;79.19;98140.94;5068898;28;20048;-75
2021/12/17 12:39:23;;;;;;;20.45;11.88;;;;;;;5.69;79.33;98140.44;5068408;28;20489;-73
2021/12/17 12:41:58;;;;;;;19.10;11.90;;;;;;;5.74;79.14;98140.53;5068736;28;20106;-74
2021/12/17 12:44:58;;;;;;;23.95;12.45;;;;;;;5.68;79.19;98141.50;5068638;28;20049;-72
2021/12/17 12:47:41;;;;;;;24.00;12.75;;;;;;;5.60;79.16;98133.81;5062630;28;20427;-73
2021/12/17 12:50:11;;;;;;;21.63;11.68;;;;;;;5.57;79.72;98142.38;5068119;28;20063;-72
2021/12/17 12:52:40;;;;;;;24.65;14.90;;;;;;;5.64;79.83;98134.97;5069099;28;20044;-73
2021/12/17 12:55:12;;;;;;;25.30;13.80;;;;;;;5.67;79.21;98129.06;5067905;28;20052;-73
2021/12/17 12:57:40;;;;;;;22.75;13.40;;;;;;;5.72;79.67;98138.06;5067217;28;20056;-73
2021/12/17 13:00:11;;;;;;;22.92;13.43;;;;;;;5.70;79.85;98140.22;5067232;28;20519;-72
2021/12/17 13:02:40;;;;;;;22.73;13.13;;;;;;;5.70;78.33;98139.41;5068289;28;20051;-73
2021/12/17 13:05:07;;;;;;;24.00;12.82;;;;;;;5.74;78.56;98140.53;5067665;28;20052;-72
2021/12/17 13:07:35;;;;;;;29.70;14.25;;;;;;;5.77;78.69;98142.75;5068361;28;20048;-73
2021/12/17 13:10:14;;;;;;;26.33;14.88;;;;;;;5.69;78.83;98138.59;5066595;28;20060;-73
2021/12/17 13:12:41;;;;;;;26.60;14.52;;;;;;;5.58;78.44;98141.31;5066825;28;20053;-73
2021/12/17 13:15:17;;;;;;;26.48;15.82;;;;;;;5.65;78.65;98148.22;5067138;28;20056;-73
2021/12/17 13:21:02;;;;;;;26.48;13.60;;;;;;;5.75;79.32;98153.00;5067797;28;20427;-73
2021/12/17 13:23:31;;;;;;;29.40;15.32;;;;;;;5.77;79.15;98150.88;5066745;28;20058;-73
2021/12/17 13:26:04;;;;;;;26.98;14.23;;;;;;;5.80;78.67;98166.63;5067796;28;20059;-73
2021/12/17 13:28:46;;;;;;;20.40;9.60;;;;;;;5.74;78.98;98162.16;5066647;28;20050;-75
2021/12/17 13:31:13;;;;;;;26.92;14.02;;;;;;;5.70;79.55;98161.03;5067752;28;20617;-73
2021/12/17 13:33:41;;;;;;;30.02;13.52;;;;;;;5.66;79.60;98162.56;5067702;28;20040;-73
2021/12/17 13:36:13;;;;;;;33.10;15.15;;;;;;;5.62;79.70;98158.69;5067540;28;20052;-72
2021/12/17 13:38:41;;;;;;;29.33;14.38;;;;;;;5.63;79.41;98168.44;5067093;28;20691;-73
2021/12/17 13:41:09;;;;;;;30.13;14.68;;;;;;;5.54;79.52;98173.44;5067336;28;20114;-73
2021/12/17 13:43:41;;;;;;;31.17;14.77;;;;;;;5.52;79.71;98180.13;5067140;28;20160;-73
2021/12/17 13:46:07;;;;;;;29.23;13.77;;;;;;;5.52;79.33;98180.13;5066667;28;20054;-73
2021/12/17 13:48:35;;;;;;;27.20;14.00;;;;;;;5.45;79.48;98170.28;5067039;28;20487;-73
2021/12/17 13:51:03;;;;;;;26.70;12.65;;;;;;;5.44;79.38;98163.25;5066902;28;20100;-72
2021/12/17 13:53:30;;;;;;;26.98;12.43;;;;;;;5.34;80.11;98167.63;5067447;28;20051;-74
2021/12/17 13:55:57;;;;;;;25.92;12.43;;;;;;;5.31;80.21;98173.50;5067736;28;20067;-73
2021/12/17 13:58:25;;;;;;;25.98;13.38;;;;;;;5.26;80.42;98171.50;5066311;28;20129;-73
2021/12/17 14:00:53;;;;;;;26.85;13.05;;;;;;;5.29;80.45;98165.63;5067148;28;20049;-73
2021/12/17 14:03:23;;;;;;;27.25;12.35;;;;;;;5.27;80.36;98156.94;5066259;28;20052;-73
2021/12/17 14:05:56;;;;;;;29.52;14.70;;;;;;;5.34;80.31;98162.22;5067600;28;20132;-73